Titania — 3EMI7 — position and weather

sailwx.info

Track history (hours):
 
Tides and Currents Weather Stations Pressure Air Temp Water Temp Dewpoint Dewpoint Depression Visibility Wind Speed Wind Dir Waves Ship Positions

Titania

Last reported at 2018-Jan-12 14:57 UTC. Time now 2018-Jan-18 16:08 UTC.
Position N 28°09' W 015°26'.

Length 94 m; draft 3.9 m.

Type: Cargo ship. MMSI: 356032000.

Date/timePositionNaut miles runAvg speedWind from/ knotsBaromVisibWave heightAir tempDewpointWater temp
2018-Jan-12 14:57N 28°09' W 015°26'0 0.0
2018-Jan-12 14:28N 28°09' W 015°26'0 0.0
2018-Jan-12 13:58N 28°09' W 015°26'0 0.0
2018-Jan-12 13:28N 28°09' W 015°26'0 0.0
2018-Jan-12 12:58N 28°09' W 015°26'0 0.0
2018-Jan-12 12:28N 28°09' W 015°26'0 0.0
2018-Jan-12 12:00N 28°09' W 015°26'0 0.0
2018-Jan-12 11:25N 28°09' W 015°26'0 0.0
2018-Jan-12 10:57N 28°09' W 015°26'0 0.0
2018-Jan-12 10:27N 28°09' W 015°26'0 0.0
2018-Jan-12 09:59N 28°09' W 015°26'0 0.0
2018-Jan-12 09:24N 28°09' W 015°26'0 0.0
2018-Jan-12 08:57N 28°09' W 015°26'0 0.0
2018-Jan-12 08:27N 28°09' W 015°26'0 0.0
2018-Jan-12 07:59N 28°09' W 015°26'0 0.0
2018-Jan-12 07:30N 28°09' W 015°26'0 0.0
2018-Jan-12 06:52N 28°09' W 015°26'0 0.0
2018-Jan-12 06:27N 28°09' W 015°26'0 0.0
2018-Jan-12 05:56N 28°09' W 015°26'0 0.0
2018-Jan-12 05:30N 28°09' W 015°26'0 0.0
2018-Jan-12 04:58N 28°09' W 015°26'0 0.0
2018-Jan-12 04:24N 28°09' W 015°26'0 0.0
2018-Jan-12 03:54N 28°09' W 015°26'0 0.0
2018-Jan-12 03:30N 28°09' W 015°26'0 0.0
2018-Jan-12 02:57N 28°09' W 015°26'0 0.0
2018-Jan-12 02:30N 28°09' W 015°26'0 0.0
2018-Jan-12 01:52N 28°09' W 015°26'0 0.0
2018-Jan-12 01:23N 28°09' W 015°26'0 0.0
2018-Jan-12 01:00N 28°09' W 015°26'0 0.0
2018-Jan-12 00:30N 28°09' W 015°26'0 0.0
2018-Jan-11 23:51N 28°09' W 015°26'0 0.0
2018-Jan-11 23:30N 28°09' W 015°26'0 0.0
2018-Jan-11 22:51N 28°09' W 015°26'0 0.0
2018-Jan-11 22:28N 28°09' W 015°26'0 0.0
2018-Jan-11 21:54N 28°09' W 015°26'0 0.0
2018-Jan-11 21:28N 28°09' W 015°26'0 0.0
2018-Jan-11 20:58N 28°09' W 015°26'0 0.0
2018-Jan-11 20:19N 28°09' W 015°26'0 0.0
2018-Jan-11 19:57N 28°09' W 015°26'0 0.0
2018-Jan-11 19:30N 28°09' W 015°26'0 0.0
2018-Jan-11 18:58N 28°09' W 015°26'0 0.0
2018-Jan-11 18:29N 28°09' W 015°26'0 0.0
2018-Jan-11 17:52N 28°09' W 015°26'0 0.0
2018-Jan-11 17:22N 28°09' W 015°26'0 0.0
2018-Jan-11 16:43N 28°09' W 015°26'0 0.0
2018-Jan-11 16:25N 28°09' W 015°26'0 0.0
2018-Jan-11 15:54N 28°09' W 015°26'0 0.2
2018-Jan-11 15:31N 28°09' W 015°26'3 5.0
2018-Jan-11 15:00N 28°07' W 015°23'5 9.7
2018-Jan-11 14:30N 28°06' W 015°18'5 9.7
2018-Jan-11 13:58N 28°05' W 015°12'4 9.6
2018-Jan-11 13:30N 28°05' W 015°07'5 9.5
2018-Jan-11 13:00N 28°04' W 015°02'5 9.4
2018-Jan-11 12:30N 28°03' W 014°57'5 9.1
2018-Jan-11 12:00N 28°02' W 014°52'5 9.0
2018-Jan-11 11:30N 28°01' W 014°47'5 9.0
2018-Jan-11 10:58N 27°60' W 014°41'  
2018-Jan-05 08:52N 28°45' W 012°03'5 9.4
2018-Jan-05 08:23N 28°42' W 012°07'4 9.3
2018-Jan-05 07:55N 28°39' W 012°11'4 9.2
2018-Jan-05 07:27N 28°37' W 012°15'18 9.0
2018-Jan-05 05:30N 28°26' W 012°31'11 8.7
2018-Jan-05 04:14N 28°19' W 012°41'2 8.8
2018-Jan-05 04:00N 28°18' W 012°43'4 8.8
2018-Jan-05 03:30N 28°15' W 012°46'5 8.8
2018-Jan-05 02:55N 28°12' W 012°51'5 8.7
2018-Jan-05 02:24N 28°09' W 012°55'4 8.7
2018-Jan-05 01:59N 28°07' W 012°58'4 8.8
2018-Jan-05 01:30N 28°04' W 013°02'4 8.7
2018-Jan-05 01:00N 28°02' W 013°06'4 8.7
2018-Jan-05 00:30N 27°59' W 013°10'4 8.6
2018-Jan-05 00:00N 27°56' W 013°13'4 8.4
2018-Jan-04 23:30N 27°53' W 013°16'4 8.4
2018-Jan-04 23:00N 27°50' W 013°19'4 8.1
2018-Jan-04 22:30N 27°47' W 013°23'4 8.1
2018-Jan-04 22:00N 27°44' W 013°26'4 8.0
2018-Jan-04 21:30N 27°41' W 013°29'4 7.9
2018-Jan-04 21:00N 27°38' W 013°32'4 8.0
2018-Jan-04 20:30N 27°35' W 013°35'4 8.1
2018-Jan-04 20:00N 27°32' W 013°38'4 8.2
2018-Jan-04 19:30N 27°30' W 013°42'4 7.9
2018-Jan-04 19:00N 27°27' W 013°45'4 7.5
2018-Jan-04 18:30N 27°24' W 013°48'4 7.6
2018-Jan-04 18:00N 27°21' W 013°51'4 7.9
2018-Jan-04 17:30N 27°18' W 013°54'4 8.4
2018-Jan-04 17:00N 27°15' W 013°57'5 8.4
2018-Jan-04 16:27N 27°12' W 014°01'4 8.4
2018-Jan-04 15:59N 27°09' W 014°04'5 8.8
2018-Jan-04 15:27N 27°06' W 014°08'4 8.9
2018-Jan-04 15:00N 27°03' W 014°11'5 8.9
2018-Jan-04 14:26N 26°59' W 014°15'4 8.7
2018-Jan-04 13:58N 26°56' W 014°18'5 8.4
2018-Jan-04 13:25N 26°53' W 014°21'4 8.3
2018-Jan-04 13:00N 26°51' W 014°24'74 8.0
2018-Jan-04 03:43N 25°57' W 015°22'  
Track history (hours):
 
Tides and Currents Weather Stations Pressure Air Temp Water Temp Dewpoint Dewpoint Depression Visibility Wind Speed Wind Dir Waves Ship Positions

Titania

Last reported at 2018-Jan-12 14:57 UTC. Time now 2018-Jan-18 16:08 UTC.
Position N 28°09' W 015°26'.

Length 94 m; draft 3.9 m.

Type: Cargo ship. MMSI: 356032000.

Date/timePositionNaut miles runAvg speedWind from/ knotsBaromVisibWave heightAir tempDewpointWater temp
2018-Jan-12 14:57N 28°09' W 015°26'0 0.0
2018-Jan-12 14:28N 28°09' W 015°26'0 0.0
2018-Jan-12 13:58N 28°09' W 015°26'0 0.0
2018-Jan-12 13:28N 28°09' W 015°26'0 0.0
2018-Jan-12 12:58N 28°09' W 015°26'0 0.0
2018-Jan-12 12:28N 28°09' W 015°26'0 0.0
2018-Jan-12 12:00N 28°09' W 015°26'0 0.0
2018-Jan-12 11:25N 28°09' W 015°26'0 0.0
2018-Jan-12 10:57N 28°09' W 015°26'0 0.0
2018-Jan-12 10:27N 28°09' W 015°26'0 0.0
2018-Jan-12 09:59N 28°09' W 015°26'0 0.0
2018-Jan-12 09:24N 28°09' W 015°26'0 0.0
2018-Jan-12 08:57N 28°09' W 015°26'0 0.0
2018-Jan-12 08:27N 28°09' W 015°26'0 0.0
2018-Jan-12 07:59N 28°09' W 015°26'0 0.0
2018-Jan-12 07:30N 28°09' W 015°26'0 0.0
2018-Jan-12 06:52N 28°09' W 015°26'0 0.0
2018-Jan-12 06:27N 28°09' W 015°26'0 0.0
2018-Jan-12 05:56N 28°09' W 015°26'0 0.0
2018-Jan-12 05:30N 28°09' W 015°26'0 0.0
2018-Jan-12 04:58N 28°09' W 015°26'0 0.0
2018-Jan-12 04:24N 28°09' W 015°26'0 0.0
2018-Jan-12 03:54N 28°09' W 015°26'0 0.0
2018-Jan-12 03:30N 28°09' W 015°26'0 0.0
2018-Jan-12 02:57N 28°09' W 015°26'0 0.0
2018-Jan-12 02:30N 28°09' W 015°26'0 0.0
2018-Jan-12 01:52N 28°09' W 015°26'0 0.0
2018-Jan-12 01:23N 28°09' W 015°26'0 0.0
2018-Jan-12 01:00N 28°09' W 015°26'0 0.0
2018-Jan-12 00:30N 28°09' W 015°26'0 0.0
2018-Jan-11 23:51N 28°09' W 015°26'0 0.0
2018-Jan-11 23:30N 28°09' W 015°26'0 0.0
2018-Jan-11 22:51N 28°09' W 015°26'0 0.0
2018-Jan-11 22:28N 28°09' W 015°26'0 0.0
2018-Jan-11 21:54N 28°09' W 015°26'0 0.0
2018-Jan-11 21:28N 28°09' W 015°26'0 0.0
2018-Jan-11 20:58N 28°09' W 015°26'0 0.0
2018-Jan-11 20:19N 28°09' W 015°26'0 0.0
2018-Jan-11 19:57N 28°09' W 015°26'0 0.0
2018-Jan-11 19:30N 28°09' W 015°26'0 0.0
2018-Jan-11 18:58N 28°09' W 015°26'0 0.0
2018-Jan-11 18:29N 28°09' W 015°26'0 0.0
2018-Jan-11 17:52N 28°09' W 015°26'0 0.0
2018-Jan-11 17:22N 28°09' W 015°26'0 0.0
2018-Jan-11 16:43N 28°09' W 015°26'0 0.0
2018-Jan-11 16:25N 28°09' W 015°26'0 0.0
2018-Jan-11 15:54N 28°09' W 015°26'0 0.2
2018-Jan-11 15:31N 28°09' W 015°26'3 5.0
2018-Jan-11 15:00N 28°07' W 015°23'5 9.7
2018-Jan-11 14:30N 28°06' W 015°18'5 9.7
2018-Jan-11 13:58N 28°05' W 015°12'4 9.6
2018-Jan-11 13:30N 28°05' W 015°07'5 9.5
2018-Jan-11 13:00N 28°04' W 015°02'5 9.4
2018-Jan-11 12:30N 28°03' W 014°57'5 9.1
2018-Jan-11 12:00N 28°02' W 014°52'5 9.0
2018-Jan-11 11:30N 28°01' W 014°47'5 9.0
2018-Jan-11 10:58N 27°60' W 014°41'  
2018-Jan-05 08:52N 28°45' W 012°03'5 9.4
2018-Jan-05 08:23N 28°42' W 012°07'4 9.3
2018-Jan-05 07:55N 28°39' W 012°11'4 9.2
2018-Jan-05 07:27N 28°37' W 012°15'18 9.0
2018-Jan-05 05:30N 28°26' W 012°31'11 8.7
2018-Jan-05 04:14N 28°19' W 012°41'2 8.8
2018-Jan-05 04:00N 28°18' W 012°43'4 8.8
2018-Jan-05 03:30N 28°15' W 012°46'5 8.8
2018-Jan-05 02:55N 28°12' W 012°51'5 8.7
2018-Jan-05 02:24N 28°09' W 012°55'4 8.7
2018-Jan-05 01:59N 28°07' W 012°58'4 8.8
2018-Jan-05 01:30N 28°04' W 013°02'4 8.7
2018-Jan-05 01:00N 28°02' W 013°06'4 8.7
2018-Jan-05 00:30N 27°59' W 013°10'4 8.6
2018-Jan-05 00:00N 27°56' W 013°13'4 8.4
2018-Jan-04 23:30N 27°53' W 013°16'4 8.4
2018-Jan-04 23:00N 27°50' W 013°19'4 8.1
2018-Jan-04 22:30N 27°47' W 013°23'4 8.1
2018-Jan-04 22:00N 27°44' W 013°26'4 8.0
2018-Jan-04 21:30N 27°41' W 013°29'4 7.9
2018-Jan-04 21:00N 27°38' W 013°32'4 8.0
2018-Jan-04 20:30N 27°35' W 013°35'4 8.1
2018-Jan-04 20:00N 27°32' W 013°38'4 8.2
2018-Jan-04 19:30N 27°30' W 013°42'4 7.9
2018-Jan-04 19:00N 27°27' W 013°45'4 7.5
2018-Jan-04 18:30N 27°24' W 013°48'4 7.6
2018-Jan-04 18:00N 27°21' W 013°51'4 7.9
2018-Jan-04 17:30N 27°18' W 013°54'4 8.4
2018-Jan-04 17:00N 27°15' W 013°57'5 8.4
2018-Jan-04 16:27N 27°12' W 014°01'4 8.4
2018-Jan-04 15:59N 27°09' W 014°04'5 8.8
2018-Jan-04 15:27N 27°06' W 014°08'4 8.9
2018-Jan-04 15:00N 27°03' W 014°11'5 8.9
2018-Jan-04 14:26N 26°59' W 014°15'4 8.7
2018-Jan-04 13:58N 26°56' W 014°18'5 8.4
2018-Jan-04 13:25N 26°53' W 014°21'4 8.3
2018-Jan-04 13:00N 26°51' W 014°24'74 8.0
2018-Jan-04 03:43N 25°57' W 015°22'  

Dump ship's entire track history